メインページ
METAR-TAF:

METAR-TAF

空港 :

パルマ・デ・マリョルカ, スペイン

パルマ・デ・マヨルカ空港

緯度: 39-33N, 経度: 002-44E, 海抜: 4m

現時点の気象観測

当レポートは33分前の23:00(UTC)に作成
北東の風 2kt
気温 18°C
湿度 88%
気圧 1021 hPa
視程10km以上
1,500メートル以下は雲なし、積乱雲なし

METAR: LEPA 232300Z 04002KT CAVOK 18/16 Q1021 NOSIG

時間: 01:33 (23:33 UTC)

予報

当レポートは6時間33分前の17:00(UTC)に作成
予報は23日の 18時(UTC)から 24日の 18時(UTC)まで有効
南西の風 9kt
視程10km以上
高度3000ftの雲はほとんどない
23日の 18時(UTC)から 23日の 20時(UTC)まで徐々に
変向風 3kt
24日の 10時(UTC)から 24日の 12時(UTC)まで徐々に
南西の風 10kt

TAF: LEPA 231700Z 2318/2418 22009KT 9999 FEW030 TX27/2412Z TN16/2406Z BECMG 2318/2320 VRB03KT BECMG 2410/2412 22010KT

4,000以上の空港の気象観測と天気予報(METAR報とTAF報)

利用可能な観測所は地図上に黄色い丸と赤い丸で示す。

丸の上にカーソルを重ねると観測所名を参照できる。

次にクリックすると気象観測と天気予報を参照できる。

マップの切り替え:黒色「×」印の緑ボタンをクリックして拡大、「-」印の緑ボタンをクリックして縮小、緑色の三角印をクリックして隣りの地図に切り替え


METAR-TAF: